Goodrich, North Dakota
Current Conditions -  °F | °C
As of 10:15 AM on Wednesday 22 Oct 2014 (Local Time) from K5H4 Reporting Station
Few Clouds Few Clouds  
Wind Chill: 55°   Ceiling: Unl
Heat Index: 55°   Visibility: 10mi
Dew Point: 46°   Wind: 14mph
Humidity: 72%   Direction: 270°W
Pressure: 29.78"   Gusts: NA
Location:  47.47°N, 100.13°W
Report Text: K5H4 221515Z AUTO 27012KT 10SM FEW120 13/08 A2978 RMK AO2
Loading
Personal Weather Stations






























Interactive Weather Map
Tropical Storm Tracking
New forecast layout! Learn more

10-Day Weather Forecast

Advertisements
Track Severe Weather on mobile